• Join FlightAware (Why Join?)
  • Login
  • US Flag 
02:27AM EST


 

Airport Tracker/Info


-or-


 

Live Flight TrackerFlight Track Log ✈ SWA37 ✈ 23-Jun-2013 ✈ KDAL - KHOU

Flight Track Log - Related Links

Times and Time Zones

All times are in EDT time to prevent confusion due to time zone crossing. See the SWA37 flight status page for this flight to view local times or setup timezone preferences in your user account.

Time Position Orientation Groundspeed Altitude Reporting Facility
EDT Latitude Longitude Course Direction KTS MPH feet Rate Location/Type
04:39PM 32.8333 -96.8333 140° Southeast 147 169 1,300  Level Dallas / Fort Worth TRACON
04:40PM 32.8000 -96.8000 140° Southeast 213 245 2,900 2,280 Climbing Dallas / Fort Worth TRACON
04:41PM 32.7500 -96.7667 151° Southeast 263 303 5,200 2,280 Climbing Dallas / Fort Worth TRACON
04:44PM 32.5753 -96.8389 199° South 286 329 10,600 2,160 Climbing Fort Worth Center
04:45PM 32.4836 -96.8717 197° South 325 374 12,600 2,040 Climbing Fort Worth Center
04:46PM 32.3939 -96.9017 196° South 359 413 14,700 2,220 Climbing Fort Worth Center
04:47PM 32.2814 -96.9342 194° South 376 433 17,100 2,400 Climbing Fort Worth Center
04:48PM 32.1769 -96.9225 175° South 376 433 19,500 1,860 Climbing Fort Worth Center
04:49PM 32.0661 -96.9011 171° South 385 443 20,900 1,800 Climbing Fort Worth Center
04:50PM 31.9556 -96.8819 172° South 399 459 23,100 2,100 Climbing Fort Worth Center
04:51PM 31.8425 -96.8631 172° South 410 472 25,100 1,620 Climbing Fort Worth Center
04:51PM 31.7842 -96.8511 170° South 406 467 25,700 1,200 Climbing Houston Center
04:52PM 31.6658 -96.8297 171° South 421 484 27,100 1,200 Climbing Houston Center
04:53PM 31.5453 -96.8122 173° South 431 496 28,300 900 Climbing Houston Center
04:54PM 31.4217 -96.7919 172° South 440 506 29,000 300 Climbing Houston Center
04:55PM 31.2983 -96.7728 172° South 443 510 29,000  Level Houston Center
04:56PM 31.1714 -96.7519 172° South 451 519 29,000  Level Houston Center
04:57PM 31.0444 -96.7322 172° South 453 521 29,000 -60 Level Houston Center
04:58PM 30.8950 -96.7086 172° South 454 522 28,900 -1,140 Descending Houston Center
04:59PM 30.7725 -96.6883 172° South 440 506 26,700 -2,280 Descending Houston Center
05:00PM 30.6550 -96.6700 172° South 424 488 24,200 -2,400 Descending Houston Center
05:02PM 30.5531 -96.6236 159° South 405 466 21,800 -2,460 Descending Houston Center
05:03PM 30.4775 -96.5322 134° Southeast 386 444 19,200 -2,520 Descending Houston Center
05:03PM 30.4297 -96.4758 134° Southeast 386 444 17,800 -2,340 Descending Houston Center
05:04PM 30.3947 -96.4336 134° Southeast 381 438 16,700 -2,280 Descending Houston Center
05:05PM 30.3269 -96.3517 134° Southeast 365 420 14,600 -2,220 Descending Houston Center
05:06PM 30.2525 -96.2633 134° Southeast 347 399 12,300 -1,800 Descending Houston Center
05:07PM 30.1839 -96.1961 140° Southeast 339 390 11,000 -720 Descending Houston Center
05:08PM 30.1075 -96.1544 155° Southeast 328 377 10,900  Descending Houston Center
05:09PM 30.0167 -96.1064 155° Southeast 320 368 11,000  Climbing Houston Center
05:10PM 29.9353 -96.0625 155° Southeast 321 369 11,000  Level Houston Center
05:11PM 29.8519 -96.0192 156° South 321 369 11,000  Level Houston Center
05:12PM 29.7614 -95.9686 154° Southeast 316 364 11,000  Level Houston Center
05:13PM 29.7064 -95.9156 140° Southeast 283 326 11,000 -420 Level Houston Center
05:14PM 29.6561 -95.8442 129° Southeast 301 346 10,300 -1,080 Descending Houston Center
05:15PM 29.6478 -95.7514 96° East 284 327 8,900 -1,620 Descending Houston Center
05:16PM 29.6506 -95.6622 88° East 290 334 7,100 -1,740 Descending Houston Center
05:17PM 29.6714 -95.5686 76° East 280 322 5,400 -1,080 Descending Houston Center
05:18PM 29.6889 -95.4847 76° East 231 266 4,800 -780 Descending Houston Center
05:19PM 29.7044 -95.4228 74° East 189 217 3,800 -720 Descending Houston Center
05:20PM 29.7206 -95.3572 74° East 203 234 3,300 -1,380 Descending Houston Center
05:21PM 29.6850 -95.3264 143° Southeast 134 154 1,000 -1,620 Descending Houston Center
05:22PM 29.6592 -95.2958 134° Southeast 135 155 300 -720 Descending Houston Center
05:24PM 29.6454 -95.2789 115° Southeast  Level Estimated
05:31PM 29.6454 -95.2789 115° Southeast  Level Estimated